Time;durP1;ratioP1;P1;durP2;ratioP2;P2;SDS_P1;SDS_P2;PMS_P1;PMS_P2;Temp;Humidity;BMP_temperature;BMP_pressure;BME280_temperature;BME280_humidity;BME280_pressure;Samples;Min_cycle;Max_cycle;Signal;HPM_P1;HPM_P2
2022/08/01 00:00:07;;;;;;;;;;;;;;;;;;351591;28;924;-64
2022/08/01 00:00:17;;;;;;;;;;;;;;;;;;351586;28;1028;-64
2022/08/01 00:00:27;;;;;;;;;;;;;;;;;;351559;28;913;-64
2022/08/01 00:00:38;;;;;;;;;;;;;;;;;;351587;28;1003;-64
2022/08/01 00:00:48;;;;;;;;;;;;;;;;;;350815;28;2116;-64
2022/08/01 00:00:58;;;;;;;;;;;;;;;;;;351149;28;1857;-65
2022/08/01 00:01:08;;;;;;;;;;;;;;;;;;352995;28;809;-65
2022/08/01 00:01:18;;;;;;;;;;;;;;;;;;352946;28;912;-64
2022/08/01 00:01:29;;;;;;;;;;;;;;;;;;352956;28;935;-64
2022/08/01 00:01:39;;;;;;;;;;;;;;;;;;353055;27;968;-64
2022/08/01 00:01:49;;;;;;;;;;;;;;;;;;353024;28;916;-64
2022/08/01 00:02:00;;;;;;;;;;;;;;;;;;352965;28;888;-64
2022/08/01 00:02:10;;;;;;;;;;;;;;;;;;352956;28;968;-64
2022/08/01 00:02:20;;;;;;;;;;;;;;;;;;353027;28;1070;-64
2022/08/01 00:02:31;;;;;;;;;;;;;;;;;;353014;28;952;-64
2022/08/01 00:02:41;;;;;;;;;;;;;;;;;;352965;28;939;-65
2022/08/01 00:02:51;;;;;;;;;;;;;;;;;;353077;28;1666;-64
2022/08/01 00:03:02;;;;;;;;;;;;;;;;;;352936;28;1023;-65
2022/08/01 00:03:12;;;;;;;;;;;;;;;;;;352996;28;940;-64
2022/08/01 00:03:22;;;;;;;;;;;;;;;;;;352888;28;1069;-64
2022/08/01 00:03:32;;;;;;;;;;;;;;;;;;353005;28;837;-65
2022/08/01 00:03:43;;;;;;;;;;;;;;;;;;353008;28;912;-64
2022/08/01 00:03:53;;;;;;;;;;;;;;;;;;353032;28;1071;-64
2022/08/01 00:04:03;;;;;;;;;;;;;;;;;;352918;28;944;-64
2022/08/01 00:04:13;;;;;;;;;;;;;;;;;;352994;28;915;-65
2022/08/01 00:04:24;;;;;;;;;;;;;;;;;;353024;28;908;-64
2022/08/01 00:04:34;;;;;;;;;;;;;;;;;;353020;28;778;-64
2022/08/01 00:04:44;;;;;;;;;;;;;;;;;;352946;28;932;-64
2022/08/01 00:04:54;;;;;;;;;;;;;;;;;;353040;27;797;-65
2022/08/01 00:05:05;;;;;;;;;;;;;;;;;;352989;28;905;-64
2022/08/01 00:05:16;;;;;;;;;;;;;;;;;;352928;28;880;-64
2022/08/01 00:05:26;;;;;;;;;;;;;;;;;;352909;28;1023;-64
2022/08/01 00:05:36;;;;;;;;;;;;;;;;;;352986;28;936;-65
2022/08/01 00:05:47;;;;;;;;;;;;;;;;;;352998;28;905;-65
2022/08/01 00:05:57;;;;;;;;;;;;;;;;;;352891;28;1007;-65
2022/08/01 00:06:07;;;;;;;;;;;;;;;;;;352986;28;891;-65
2022/08/01 00:06:17;;;;;;;;;;;;;;;;;;352974;28;1057;-64
2022/08/01 00:06:28;;;;;;;;;;;;;;;;;;350833;28;1325;-64
2022/08/01 00:06:38;;;;;;;;;;;;;;;;;;351518;28;872;-64
2022/08/01 00:06:48;;;;;;;;;;;;;;;;;;351582;28;1019;-64
2022/08/01 00:06:58;;;;;;;;;;;;;;;;;;351584;28;833;-64
2022/08/01 00:07:09;;;;;;;;;;;;;;;;;;351527;28;971;-64
2022/08/01 00:07:19;;;;;;;;;;;;;;;;;;351542;28;1060;-64
2022/08/01 00:07:29;;;;;;;;;;;;;;;;;;350814;28;1542;-64
2022/08/01 00:07:39;;;;;;;;;;;;;;;;;;351443;28;1523;-64
2022/08/01 00:07:50;;;;;;;;;;;;;;;;;;351573;28;762;-65
2022/08/01 00:08:00;;;;;;;;;;;;;;;;;;351594;28;956;-65
2022/08/01 00:08:10;;;;;;;;;;;;;;;;;;351489;28;928;-65
2022/08/01 00:08:20;;;;;;;;;;;;;;;;;;351608;28;908;-64
2022/08/01 00:08:31;;;;;;;;;;;;;;;;;;351558;28;913;-64
2022/08/01 00:08:41;;;;;;;;;;;;;;;;;;351576;28;833;-64
2022/08/01 00:08:51;;;;;;;;;;;;;;;;;;351605;28;806;-65
2022/08/01 00:09:01;;;;;;;;;;;;;;;;;;351596;28;865;-64
2022/08/01 00:09:12;;;;;;;;;;;;;;;;;;351516;28;975;-64
2022/08/01 00:09:22;;;;;;;;;;;;;;;;;;351581;28;1012;-64
2022/08/01 00:09:32;;;;;;;;;;;;;;;;;;351555;28;821;-64
2022/08/01 00:09:42;;;;;;;;;;;;;;;;;;351502;28;933;-64
2022/08/01 00:09:52;;;;;;;;;;;;;;;;;;351567;28;841;-65
2022/08/01 00:10:03;;;;;;;;;;;;;;;;;;351591;28;924;-64
2022/08/01 00:10:14;;;;;;;;;;;;;;;;;;351469;28;1393;-65
2022/08/01 00:10:24;;;;;;;;;;;;;;;;;;351548;28;952;-64
2022/08/01 00:10:35;;;;;;;;;;;;;;;;;;351458;28;1003;-65
2022/08/01 00:10:45;;;;;;;;;;;;;;;;;;351595;28;845;-64
2022/08/01 00:10:55;;;;;;;;;;;;;;;;;;351575;28;964;-64
2022/08/01 00:11:05;;;;;;;;;;;;;;;;;;351545;28;793;-65
2022/08/01 00:11:16;;;;;;;;;;;;;;;;;;351550;28;932;-65
2022/08/01 00:11:26;;;;;;;;;;;;;;;;;;351560;27;881;-64
2022/08/01 00:11:36;;;;;;;;;;;;;;;;;;351502;28;913;-65
2022/08/01 00:11:46;;;;;;;;;;;;;;;;;;351484;28;802;-65
2022/08/01 00:11:56;;;;;;;;;;;;;;;;;;351545;28;979;-64
2022/08/01 00:12:07;;;;;;;;;;;;;;;;;;351536;28;968;-64
2022/08/01 00:12:17;;;;;;;;;;;;;;;;;;351575;28;778;-65
2022/08/01 00:12:27;;;;;;;;;;;;;;;;;;351554;28;963;-65
2022/08/01 00:12:38;;;;;;;;;;;;;;;;;;351484;28;940;-64
2022/08/01 00:12:48;;;;;;;;;;;;;;;;;;351555;28;936;-64
2022/08/01 00:12:58;;;;;;;;;;;;;;;;;;351537;28;1052;-65
2022/08/01 00:13:08;;;;;;;;;;;;;;;;;;351532;28;920;-65
2022/08/01 00:13:18;;;;;;;;;;;;;;;;;;351546;28;798;-64
2022/08/01 00:13:29;;;;;;;;;;;;;;;;;;350941;27;1309;-64
2022/08/01 00:13:39;;;;;;;;;;;;;;;;;;350646;28;1332;-65
2022/08/01 00:13:49;;;;;;;;;;;;;;;;;;350156;28;790;-65
2022/08/01 00:13:59;;;;;;;;;;;;;;;;;;350149;28;885;-64
2022/08/01 00:14:10;;;;;;;;;;;;;;;;;;350096;28;983;-65
2022/08/01 00:14:20;;;;;;;;;;;;;;;;;;350123;28;988;-65
2022/08/01 00:14:30;;;;;;;;;;;;;;;;;;350182;28;920;-65
2022/08/01 00:14:40;;;;;;;;;;;;;;;;;;350117;28;901;-64
2022/08/01 00:14:50;;;;;;;;;;;;;;;;;;350136;28;999;-64
2022/08/01 00:15:01;;;;;;;;;;;;;;;;;;350208;28;941;-64
2022/08/01 00:15:12;;;;;;;;;;;;;;;;;;350081;28;972;-64
2022/08/01 00:15:22;;;;;;;;;;;;;;;;;;350154;28;988;-64
2022/08/01 00:15:33;;;;;;;;;;;;;;;;;;350139;28;830;-65
2022/08/01 00:15:43;;;;;;;;;;;;;;;;;;350155;28;936;-64
2022/08/01 00:15:53;;;;;;;;;;;;;;;;;;350037;28;913;-65
2022/08/01 00:16:04;;;;;;;;;;;;;;;;;;350206;28;798;-64
2022/08/01 00:16:15;;;;;;;;;;;;;;;;;;350183;28;983;-65
2022/08/01 00:16:25;;;;;;;;;;;;;;;;;;350136;28;988;-65
2022/08/01 00:16:36;;;;;;;;;;;;;;;;;;350127;28;964;-64
2022/08/01 00:16:46;;;;;;;;;;;;;;;;;;350133;28;1212;-65
2022/08/01 00:16:56;;;;;;;;;;;;;;;;;;350197;28;964;-65
2022/08/01 00:17:07;;;;;;;;;;;;;;;;;;350112;28;1967;-65
2022/08/01 00:17:17;;;;;;;;;;;;;;;;;;350155;28;824;-65
2022/08/01 00:17:27;;;;;;;;;;;;;;;;;;350148;28;987;-65
2022/08/01 00:17:37;;;;;;;;;;;;;;;;;;350141;28;1036;-64
2022/08/01 00:17:47;;;;;;;;;;;;;;;;;;350112;28;999;-64
2022/08/01 00:17:58;;;;;;;;;;;;;;;;;;350201;28;913;-64
2022/08/01 00:18:08;;;;;;;;;;;;;;;;;;350142;28;940;-65
2022/08/01 00:18:18;;;;;;;;;;;;;;;;;;350184;28;837;-64
2022/08/01 00:18:28;;;;;;;;;;;;;;;;;;350086;28;1020;-65
2022/08/01 00:18:38;;;;;;;;;;;;;;;;;;350155;28;967;-64
2022/08/01 00:18:51;;;;;;;;;;;;;;;;;;350183;28;870;-65
2022/08/01 00:19:02;;;;;;;;;;;;;;;;;;350181;28;960;-64
2022/08/01 00:19:12;;;;;;;;;;;;;;;;;;350121;28;932;-65
2022/08/01 00:19:22;;;;;;;;;;;;;;;;;;350164;28;794;-64
2022/08/01 00:19:33;;;;;;;;;;;;;;;;;;350147;28;948;-65
2022/08/01 00:19:43;;;;;;;;;;;;;;;;;;350144;28;949;-64
2022/08/01 00:19:53;;;;;;;;;;;;;;;;;;350100;28;888;-64
2022/08/01 00:20:05;;;;;;;;;;;;;;;;;;350128;28;992;-64
2022/08/01 00:20:15;;;;;;;;;;;;;;;;;;350113;28;977;-64
2022/08/01 00:20:25;;;;;;;;;;;;;;;;;;350111;28;979;-64
2022/08/01 00:20:36;;;;;;;;;;;;;;;;;;350057;28;1101;-64
2022/08/01 00:20:46;;;;;;;;;;;;;;;;;;350176;28;834;-64
2022/08/01 00:20:56;;;;;;;;;;;;;;;;;;350174;28;916;-65
2022/08/01 00:21:06;;;;;;;;;;;;;;;;;;350174;28;972;-64
2022/08/01 00:21:17;;;;;;;;;;;;;;;;;;350152;28;894;-65
2022/08/01 00:21:27;;;;;;;;;;;;;;;;;;350115;28;940;-64
2022/08/01 00:21:37;;;;;;;;;;;;;;;;;;349983;28;1771;-64
2022/08/01 00:21:47;;;;;;;;;;;;;;;;;;350208;28;861;-64
2022/08/01 00:21:58;;;;;;;;;;;;;;;;;;350129;28;915;-65
2022/08/01 00:22:08;;;;;;;;;;;;;;;;;;350086;28;920;-64
2022/08/01 00:22:18;;;;;;;;;;;;;;;;;;350160;28;931;-64
2022/08/01 00:22:30;;;;;;;;;;;;;;;;;;350147;28;963;-64
2022/08/01 00:22:40;;;;;;;;;;;;;;;;;;350129;28;913;-65
2022/08/01 00:22:50;;;;;;;;;;;;;;;;;;350120;28;1100;-64
2022/08/01 00:23:02;;;;;;;;;;;;;;;;;;350168;28;904;-64
2022/08/01 00:23:12;;;;;;;;;;;;;;;;;;350153;28;916;-65
2022/08/01 00:23:23;;;;;;;;;;;;;;;;;;350147;28;841;-65
2022/08/01 00:23:33;;;;;;;;;;;;;;;;;;350131;28;885;-64
2022/08/01 00:23:45;;;;;;;;;;;;;;;;;;350157;28;912;-65
2022/08/01 00:23:55;;;;;;;;;;;;;;;;;;350136;28;920;-64
2022/08/01 00:24:05;;;;;;;;;;;;;;;;;;350165;28;869;-64
2022/08/01 00:24:15;;;;;;;;;;;;;;;;;;350077;28;1166;-64
2022/08/01 00:24:26;;;;;;;;;;;;;;;;;;350117;28;908;-65
2022/08/01 00:24:36;;;;;;;;;;;;;;;;;;350213;28;841;-64
2022/08/01 00:24:46;;;;;;;;;;;;;;;;;;350131;28;971;-65
2022/08/01 00:24:56;;;;;;;;;;;;;;;;;;350120;28;1015;-64
2022/08/01 00:25:07;;;;;;;;;;;;;;;;;;350196;28;924;-64
2022/08/01 00:25:17;;;;;;;;;;;;;;;;;;350193;28;944;-64
2022/08/01 00:25:27;;;;;;;;;;;;;;;;;;350094;28;785;-65
2022/08/01 00:25:37;;;;;;;;;;;;;;;;;;350668;28;1327;-64
2022/08/01 00:25:47;;;;;;;;;;;;;;;;;;351548;28;884;-64
2022/08/01 00:25:58;;;;;;;;;;;;;;;;;;351568;28;924;-64
2022/08/01 00:26:08;;;;;;;;;;;;;;;;;;351457;28;1004;-65
2022/08/01 00:26:18;;;;;;;;;;;;;;;;;;351536;28;833;-65
2022/08/01 00:26:28;;;;;;;;;;;;;;;;;;351517;28;932;-64
2022/08/01 00:26:38;;;;;;;;;;;;;;;;;;351577;28;904;-64
2022/08/01 00:26:49;;;;;;;;;;;;;;;;;;351498;28;940;-64
2022/08/01 00:26:59;;;;;;;;;;;;;;;;;;351559;28;865;-64
2022/08/01 00:27:09;;;;;;;;;;;;;;;;;;351587;28;809;-65
2022/08/01 00:27:19;;;;;;;;;;;;;;;;;;351555;28;920;-64
2022/08/01 00:27:29;;;;;;;;;;;;;;;;;;351506;28;960;-64
2022/08/01 00:27:40;;;;;;;;;;;;;;;;;;351500;28;928;-65
2022/08/01 00:27:50;;;;;;;;;;;;;;;;;;351533;28;1030;-64
2022/08/01 00:28:00;;;;;;;;;;;;;;;;;;351613;28;790;-65
2022/08/01 00:28:11;;;;;;;;;;;;;;;;;;351521;28;975;-64
2022/08/01 00:28:21;;;;;;;;;;;;;;;;;;350517;28;1267;-65
2022/08/01 00:28:31;;;;;;;;;;;;;;;;;;351444;28;1003;-64
2022/08/01 00:28:41;;;;;;;;;;;;;;;;;;351487;28;1071;-64
2022/08/01 00:28:52;;;;;;;;;;;;;;;;;;351578;28;991;-64
2022/08/01 00:29:02;;;;;;;;;;;;;;;;;;351594;28;781;-65
2022/08/01 00:29:12;;;;;;;;;;;;;;;;;;351583;28;915;-64
2022/08/01 00:29:22;;;;;;;;;;;;;;;;;;351490;28;975;-64
2022/08/01 00:29:33;;;;;;;;;;;;;;;;;;351506;28;928;-64
2022/08/01 00:29:43;;;;;;;;;;;;;;;;;;351595;28;963;-64
2022/08/01 00:29:53;;;;;;;;;;;;;;;;;;351559;28;927;-64
2022/08/01 00:30:04;;;;;;;;;;;;;;;;;;351522;28;1167;-64
2022/08/01 00:30:14;;;;;;;;;;;;;;;;;;351450;28;1043;-65
2022/08/01 00:30:25;;;;;;;;;;;;;;;;;;351576;28;933;-64
2022/08/01 00:30:35;;;;;;;;;;;;;;;;;;351487;28;896;-64
2022/08/01 00:30:45;;;;;;;;;;;;;;;;;;351573;28;912;-64
2022/08/01 00:30:55;;;;;;;;;;;;;;;;;;350051;28;2045;-64
2022/08/01 00:31:06;;;;;;;;;;;;;;;;;;352323;28;912;-65
2022/08/01 00:31:16;;;;;;;;;;;;;;;;;;352934;28;1035;-64
2022/08/01 00:31:26;;;;;;;;;;;;;;;;;;352955;28;912;-65
2022/08/01 00:31:36;;;;;;;;;;;;;;;;;;352927;28;912;-64
2022/08/01 00:31:47;;;;;;;;;;;;;;;;;;352949;28;979;-64
2022/08/01 00:31:57;;;;;;;;;;;;;;;;;;352917;28;849;-65
2022/08/01 00:32:07;;;;;;;;;;;;;;;;;;352945;28;960;-64
2022/08/01 00:32:17;;;;;;;;;;;;;;;;;;352971;28;1023;-64
2022/08/01 00:32:30;;;;;;;;;;;;;;;;;;353021;27;824;-64
2022/08/01 00:32:43;;;;;;;;;;;;;;;;;;352880;28;971;-64
2022/08/01 00:32:53;;;;;;;;;;;;;;;;;;352922;28;940;-64
2022/08/01 00:33:03;;;;;;;;;;;;;;;;;;353000;28;766;-64
2022/08/01 00:33:13;;;;;;;;;;;;;;;;;;352902;28;991;-65
2022/08/01 00:33:24;;;;;;;;;;;;;;;;;;353003;28;908;-64
2022/08/01 00:33:34;;;;;;;;;;;;;;;;;;352988;28;995;-64
2022/08/01 00:33:44;;;;;;;;;;;;;;;;;;352875;28;1076;-64
2022/08/01 00:33:54;;;;;;;;;;;;;;;;;;352926;28;924;-64
2022/08/01 00:34:04;;;;;;;;;;;;;;;;;;352906;28;1062;-64
2022/08/01 00:34:15;;;;;;;;;;;;;;;;;;352942;28;912;-64
2022/08/01 00:34:25;;;;;;;;;;;;;;;;;;352901;28;1102;-64
2022/08/01 00:34:35;;;;;;;;;;;;;;;;;;352913;28;908;-64
2022/08/01 00:34:45;;;;;;;;;;;;;;;;;;352872;28;1015;-64
2022/08/01 00:34:55;;;;;;;;;;;;;;;;;;352912;28;1032;-64
2022/08/01 00:35:06;;;;;;;;;;;;;;;;;;352993;28;825;-65
2022/08/01 00:35:16;;;;;;;;;;;;;;;;;;352911;28;908;-64
2022/08/01 00:35:26;;;;;;;;;;;;;;;;;;352985;28;849;-64
2022/08/01 00:35:36;;;;;;;;;;;;;;;;;;352926;28;1145;-64
2022/08/01 00:35:47;;;;;;;;;;;;;;;;;;352904;28;923;-64
2022/08/01 00:35:57;;;;;;;;;;;;;;;;;;352915;28;900;-65
2022/08/01 00:36:07;;;;;;;;;;;;;;;;;;352994;28;865;-64
2022/08/01 00:36:17;;;;;;;;;;;;;;;;;;352955;28;792;-64
2022/08/01 00:36:27;;;;;;;;;;;;;;;;;;352958;28;864;-64
2022/08/01 00:36:38;;;;;;;;;;;;;;;;;;352885;28;978;-65
2022/08/01 00:36:48;;;;;;;;;;;;;;;;;;352902;28;844;-64
2022/08/01 00:36:58;;;;;;;;;;;;;;;;;;352982;28;940;-64
2022/08/01 00:37:08;;;;;;;;;;;;;;;;;;352842;28;1909;-64
2022/08/01 00:37:18;;;;;;;;;;;;;;;;;;352941;28;1114;-64
2022/08/01 00:37:29;;;;;;;;;;;;;;;;;;351588;28;1525;-64
2022/08/01 00:37:39;;;;;;;;;;;;;;;;;;351590;28;845;-64
2022/08/01 00:37:49;;;;;;;;;;;;;;;;;;351491;28;928;-65
2022/08/01 00:37:59;;;;;;;;;;;;;;;;;;351531;28;1026;-64
2022/08/01 00:38:10;;;;;;;;;;;;;;;;;;351552;28;865;-65
2022/08/01 00:38:21;;;;;;;;;;;;;;;;;;351540;28;782;-64
2022/08/01 00:38:31;;;;;;;;;;;;;;;;;;351543;28;886;-65
2022/08/01 00:38:41;;;;;;;;;;;;;;;;;;351554;28;991;-64
2022/08/01 00:38:51;;;;;;;;;;;;;;;;;;351416;28;1027;-64
2022/08/01 00:39:02;;;;;;;;;;;;;;;;;;351576;28;825;-64
2022/08/01 00:39:12;;;;;;;;;;;;;;;;;;351500;28;896;-65
2022/08/01 00:39:22;;;;;;;;;;;;;;;;;;351359;28;1506;-64
2022/08/01 00:39:33;;;;;;;;;;;;;;;;;;351540;28;928;-64
2022/08/01 00:39:43;;;;;;;;;;;;;;;;;;351542;28;972;-64
2022/08/01 00:39:53;;;;;;;;;;;;;;;;;;351493;28;999;-64
2022/08/01 00:40:04;;;;;;;;;;;;;;;;;;351542;28;841;-65
2022/08/01 00:40:14;;;;;;;;;;;;;;;;;;351545;28;900;-64
2022/08/01 00:40:24;;;;;;;;;;;;;;;;;;351552;28;789;-65
2022/08/01 00:40:34;;;;;;;;;;;;;;;;;;351569;28;861;-64
2022/08/01 00:40:44;;;;;;;;;;;;;;;;;;351520;28;1011;-64
2022/08/01 00:40:55;;;;;;;;;;;;;;;;;;351452;28;932;-65
2022/08/01 00:41:05;;;;;;;;;;;;;;;;;;351523;28;1105;-65
2022/08/01 00:41:15;;;;;;;;;;;;;;;;;;351557;28;1003;-64
2022/08/01 00:41:25;;;;;;;;;;;;;;;;;;351535;28;987;-64
2022/08/01 00:41:36;;;;;;;;;;;;;;;;;;351512;28;908;-64
2022/08/01 00:41:46;;;;;;;;;;;;;;;;;;351496;28;920;-65
2022/08/01 00:41:56;;;;;;;;;;;;;;;;;;351538;28;904;-64
2022/08/01 00:42:07;;;;;;;;;;;;;;;;;;351556;28;880;-64
2022/08/01 00:42:17;;;;;;;;;;;;;;;;;;351491;28;995;-64
2022/08/01 00:42:27;;;;;;;;;;;;;;;;;;351541;28;924;-64
2022/08/01 00:42:37;;;;;;;;;;;;;;;;;;351545;28;1075;-64
2022/08/01 00:42:48;;;;;;;;;;;;;;;;;;351469;28;920;-65
2022/08/01 00:42:58;;;;;;;;;;;;;;;;;;350969;28;1324;-64
2022/08/01 00:43:09;;;;;;;;;;;;;;;;;;350258;28;1367;-65
2022/08/01 00:43:19;;;;;;;;;;;;;;;;;;350074;28;1137;-64
2022/08/01 00:43:29;;;;;;;;;;;;;;;;;;350097;28;1245;-64
2022/08/01 00:43:39;;;;;;;;;;;;;;;;;;351560;28;972;-65
2022/08/01 00:43:49;;;;;;;;;;;;;;;;;;351403;28;912;-64
2022/08/01 00:44:04;;;;;;;;;;;;;;;;;;351041;28;1454;-64
2022/08/01 00:44:14;;;;;;;;;;;;;;;;;;350159;28;878;-65
2022/08/01 00:44:24;;;;;;;;;;;;;;;;;;350156;28;968;-65
2022/08/01 00:44:35;;;;;;;;;;;;;;;;;;350078;28;949;-65
2022/08/01 00:44:45;;;;;;;;;;;;;;;;;;350155;28;893;-64
2022/08/01 00:44:55;;;;;;;;;;;;;;;;;;350095;28;917;-65
2022/08/01 00:45:06;;;;;;;;;;;;;;;;;;350041;28;1003;-65
2022/08/01 00:45:16;;;;;;;;;;;;;;;;;;350135;28;999;-64
2022/08/01 00:45:26;;;;;;;;;;;;;;;;;;350132;28;952;-65
2022/08/01 00:45:36;;;;;;;;;;;;;;;;;;350106;28;909;-65
2022/08/01 00:45:46;;;;;;;;;;;;;;;;;;350140;28;972;-65
2022/08/01 00:45:57;;;;;;;;;;;;;;;;;;350088;28;1136;-64
2022/08/01 00:46:07;;;;;;;;;;;;;;;;;;350101;28;964;-64
2022/08/01 00:46:17;;;;;;;;;;;;;;;;;;350140;28;856;-64
2022/08/01 00:46:27;;;;;;;;;;;;;;;;;;350130;28;987;-64
2022/08/01 00:46:37;;;;;;;;;;;;;;;;;;350089;28;921;-65
2022/08/01 00:46:47;;;;;;;;;;;;;;;;;;350114;28;924;-64
2022/08/01 00:46:58;;;;;;;;;;;;;;;;;;350107;28;964;-65
2022/08/01 00:47:08;;;;;;;;;;;;;;;;;;350075;28;929;-65
2022/08/01 00:47:18;;;;;;;;;;;;;;;;;;350112;28;1015;-64
2022/08/01 00:47:29;;;;;;;;;;;;;;;;;;350092;28;817;-65
2022/08/01 00:47:39;;;;;;;;;;;;;;;;;;350104;28;984;-64
2022/08/01 00:47:49;;;;;;;;;;;;;;;;;;350036;28;1076;-64
2022/08/01 00:47:59;;;;;;;;;;;;;;;;;;349884;28;877;-64
2022/08/01 00:48:10;;;;;;;;;;;;;;;;;;349880;28;952;-64
2022/08/01 00:48:20;;;;;;;;;;;;;;;;;;349846;28;871;-65
2022/08/01 00:48:30;;;;;;;;;;;;;;;;;;349924;28;905;-64
2022/08/01 00:48:40;;;;;;;;;;;;;;;;;;350136;28;916;-65
2022/08/01 00:48:51;;;;;;;;;;;;;;;;;;350109;28;964;-65
2022/08/01 00:49:01;;;;;;;;;;;;;;;;;;350120;28;964;-64
2022/08/01 00:49:11;;;;;;;;;;;;;;;;;;350013;28;1288;-65
2022/08/01 00:49:21;;;;;;;;;;;;;;;;;;350141;28;932;-64
2022/08/01 00:49:32;;;;;;;;;;;;;;;;;;350097;28;929;-65
2022/08/01 00:49:42;;;;;;;;;;;;;;;;;;350151;28;1007;-65
2022/08/01 00:49:52;;;;;;;;;;;;;;;;;;350134;28;921;-65
2022/08/01 00:50:03;;;;;;;;;;;;;;;;;;350016;28;1000;-65
2022/08/01 00:50:13;;;;;;;;;;;;;;;;;;350157;28;812;-64
2022/08/01 00:50:24;;;;;;;;;;;;;;;;;;350111;28;920;-64
2022/08/01 00:50:34;;;;;;;;;;;;;;;;;;350159;28;916;-64
2022/08/01 00:50:45;;;;;;;;;;;;;;;;;;350139;28;916;-64
2022/08/01 00:50:55;;;;;;;;;;;;;;;;;;350085;28;960;-65
2022/08/01 00:51:07;;;;;;;;;;;;;;;;;;350123;28;925;-64
2022/08/01 00:51:17;;;;;;;;;;;;;;;;;;350061;28;1020;-64
2022/08/01 00:51:27;;;;;;;;;;;;;;;;;;350158;28;802;-64
2022/08/01 00:51:38;;;;;;;;;;;;;;;;;;350131;28;924;-65
2022/08/01 00:51:48;;;;;;;;;;;;;;;;;;350106;28;865;-64
2022/08/01 00:51:59;;;;;;;;;;;;;;;;;;350099;28;1011;-64
2022/08/01 00:52:09;;;;;;;;;;;;;;;;;;350142;28;943;-64
2022/08/01 00:52:20;;;;;;;;;;;;;;;;;;350081;28;862;-64
2022/08/01 00:52:30;;;;;;;;;;;;;;;;;;350117;28;940;-64
2022/08/01 00:52:40;;;;;;;;;;;;;;;;;;350146;28;920;-65
2022/08/01 00:52:51;;;;;;;;;;;;;;;;;;350150;28;823;-65
2022/08/01 00:53:01;;;;;;;;;;;;;;;;;;350099;28;920;-65
2022/08/01 00:53:12;;;;;;;;;;;;;;;;;;350151;28;1019;-64
2022/08/01 00:53:22;;;;;;;;;;;;;;;;;;350061;28;850;-65
2022/08/01 00:53:33;;;;;;;;;;;;;;;;;;350177;28;854;-65
2022/08/01 00:53:43;;;;;;;;;;;;;;;;;;350126;28;949;-64
2022/08/01 00:53:54;;;;;;;;;;;;;;;;;;350074;28;924;-64
2022/08/01 00:54:04;;;;;;;;;;;;;;;;;;350100;28;991;-64
2022/08/01 00:54:15;;;;;;;;;;;;;;;;;;350093;28;1099;-64
2022/08/01 00:54:26;;;;;;;;;;;;;;;;;;350118;28;940;-65
2022/08/01 00:54:36;;;;;;;;;;;;;;;;;;350087;28;983;-65
2022/08/01 00:54:47;;;;;;;;;;;;;;;;;;350141;28;861;-64
2022/08/01 00:54:57;;;;;;;;;;;;;;;;;;350091;28;917;-64
2022/08/01 00:55:09;;;;;;;;;;;;;;;;;;350081;28;1119;-65
2022/08/01 00:55:20;;;;;;;;;;;;;;;;;;350114;28;968;-65
2022/08/01 00:55:31;;;;;;;;;;;;;;;;;;351014;28;1530;-64
2022/08/01 00:55:41;;;;;;;;;;;;;;;;;;351463;28;1601;-64
2022/08/01 00:55:51;;;;;;;;;;;;;;;;;;351486;28;944;-64
2022/08/01 00:56:02;;;;;;;;;;;;;;;;;;351442;28;1022;-64
2022/08/01 00:56:12;;;;;;;;;;;;;;;;;;351502;28;999;-64
2022/08/01 00:56:24;;;;;;;;;;;;;;;;;;351480;28;1086;-65
2022/08/01 00:56:34;;;;;;;;;;;;;;;;;;351487;28;1019;-64
2022/08/01 00:56:44;;;;;;;;;;;;;;;;;;351519;28;944;-64
2022/08/01 00:56:55;;;;;;;;;;;;;;;;;;351494;28;975;-64
2022/08/01 00:57:05;;;;;;;;;;;;;;;;;;351424;28;1976;-64
2022/08/01 00:57:15;;;;;;;;;;;;;;;;;;351530;28;984;-64
2022/08/01 00:57:26;;;;;;;;;;;;;;;;;;351506;28;845;-64
2022/08/01 00:57:36;;;;;;;;;;;;;;;;;;351474;28;1003;-65
2022/08/01 00:57:47;;;;;;;;;;;;;;;;;;351520;28;770;-64
2022/08/01 00:57:58;;;;;;;;;;;;;;;;;;351515;28;920;-64
2022/08/01 00:58:08;;;;;;;;;;;;;;;;;;351510;28;856;-65
2022/08/01 00:58:19;;;;;;;;;;;;;;;;;;351471;28;1051;-65
2022/08/01 00:58:31;;;;;;;;;;;;;;;;;;351499;28;940;-65
2022/08/01 00:58:42;;;;;;;;;;;;;;;;;;351516;28;975;-64
2022/08/01 00:58:53;;;;;;;;;;;;;;;;;;350433;28;1364;-64
2022/08/01 00:59:03;;;;;;;;;;;;;;;;;;350090;28;912;-64
2022/08/01 00:59:14;;;;;;;;;;;;;;;;;;350069;28;936;-64
2022/08/01 00:59:24;;;;;;;;;;;;;;;;;;350133;28;925;-65
2022/08/01 00:59:35;;;;;;;;;;;;;;;;;;350081;28;888;-64
2022/08/01 00:59:46;;;;;;;;;;;;;;;;;;350065;28;916;-65
2022/08/01 00:59:56;;;;;;;;;;;;;;;;;;350120;28;960;-65
2022/08/01 01:00:06;;;;;;;;;;;;;;;;;;350123;28;949;-65
2022/08/01 01:00:17;;;;;;;;;;;;;;;;;;350033;28;1015;-64
2022/08/01 01:00:27;;;;;;;;;;;;;;;;;;350134;28;904;-65
2022/08/01 01:00:38;;;;;;;;;;;;;;;;;;350146;28;963;-65
2022/08/01 01:00:48;;;;;;;;;;;;;;;;;;350372;28;1340;-64
2022/08/01 01:00:59;;;;;;;;;;;;;;;;;;349944;28;2053;-65
2022/08/01 01:01:09;;;;;;;;;;;;;;;;;;350124;28;885;-64
2022/08/01 01:01:20;;;;;;;;;;;;;;;;;;350150;28;1707;-64
2022/08/01 01:01:31;;;;;;;;;;;;;;;;;;350028;28;1027;-65
2022/08/01 01:01:41;;;;;;;;;;;;;;;;;;350103;28;932;-64
2022/08/01 01:01:51;;;;;;;;;;;;;;;;;;350100;28;929;-64
2022/08/01 01:02:01;;;;;;;;;;;;;;;;;;350122;28;936;-65
2022/08/01 01:02:12;;;;;;;;;;;;;;;;;;350088;28;857;-65
2022/08/01 01:02:22;;;;;;;;;;;;;;;;;;350111;28;1004;-65
2022/08/01 01:02:32;;;;;;;;;;;;;;;;;;350164;28;833;-65
2022/08/01 01:02:43;;;;;;;;;;;;;;;;;;350133;28;925;-65
2022/08/01 01:02:53;;;;;;;;;;;;;;;;;;350150;28;999;-65
2022/08/01 01:03:04;;;;;;;;;;;;;;;;;;350111;28;976;-64
2022/08/01 01:03:14;;;;;;;;;;;;;;;;;;350051;28;806;-64
2022/08/01 01:03:24;;;;;;;;;;;;;;;;;;350174;28;944;-64
2022/08/01 01:03:34;;;;;;;;;;;;;;;;;;350099;28;862;-64
2022/08/01 01:03:45;;;;;;;;;;;;;;;;;;350112;28;909;-64
2022/08/01 01:03:56;;;;;;;;;;;;;;;;;;350105;28;881;-65
2022/08/01 01:04:06;;;;;;;;;;;;;;;;;;350057;28;947;-65
2022/08/01 01:04:17;;;;;;;;;;;;;;;;;;350112;28;901;-64
2022/08/01 01:04:27;;;;;;;;;;;;;;;;;;350121;28;908;-64
2022/08/01 01:04:37;;;;;;;;;;;;;;;;;;350141;28;963;-65
2022/08/01 01:04:47;;;;;;;;;;;;;;;;;;350135;28;984;-64
2022/08/01 01:04:57;;;;;;;;;;;;;;;;;;350032;28;829;-65
2022/08/01 01:05:08;;;;;;;;;;;;;;;;;;350102;28;983;-65
2022/08/01 01:05:18;;;;;;;;;;;;;;;;;;350131;28;991;-65
2022/08/01 01:05:29;;;;;;;;;;;;;;;;;;350111;28;804;-65
2022/08/01 01:05:45;;;;;;;;;;;;;;;;;;350091;28;773;-64
2022/08/01 01:06:02;;;;;;;;;;;;;;;;;;350077;28;912;-64
2022/08/01 01:06:24;;;;;;;;;;;;;;;;;;350089;28;996;-64
2022/08/01 01:06:48;;;;;;;;;;;;;;;;;;350128;28;992;-64
2022/08/01 01:07:06;;;;;;;;;;;;;;;;;;350127;28;916;-65
2022/08/01 01:07:27;;;;;;;;;;;;;;;;;;350122;28;830;-65
2022/08/01 01:07:38;;;;;;;;;;;;;;;;;;350059;28;996;-65
2022/08/01 01:08:14;;;;;;;;;;;;;;;;;;349871;28;1286;-64
2022/08/01 01:08:29;;;;;;;;;;;;;;;;;;347898;28;1219;-65
2022/08/01 01:09:15;;;;;;;;;;;;;;;;;;350135;28;944;-64
2022/08/01 01:09:39;;;;;;;;;;;;;;;;;;347125;28;952;-64
2022/08/01 01:09:57;;;;;;;;;;;;;;;;;;347187;28;937;-64
2022/08/01 01:10:16;;;;;;;;;;;;;;;;;;347134;28;981;-65
2022/08/01 01:10:39;;;;;;;;;;;;;;;;;;347082;28;930;-65
2022/08/01 01:10:49;;;;;;;;;;;;;;;;;;347112;28;819;-64
2022/08/01 01:11:10;;;;;;;;;;;;;;;;;;347169;28;862;-64
2022/08/01 01:11:31;;;;;;;;;;;;;;;;;;347142;28;1008;-65
2022/08/01 01:11:44;;;;;;;;;;;;;;;;;;347080;28;992;-65
2022/08/01 01:12:13;;;;;;;;;;;;;;;;;;347180;28;980;-64
2022/08/01 01:12:29;;;;;;;;;;;;;;;;;;350949;28;1561;-64
2022/08/01 01:12:58;;;;;;;;;;;;;;;;;;352154;28;975;-65
2022/08/01 01:13:26;;;;;;;;;;;;;;;;;;350012;28;1758;-64
2022/08/01 01:13:55;;;;;;;;;;;;;;;;;;350041;28;1237;-64
2022/08/01 01:14:09;;;;;;;;;;;;;;;;;;350072;28;1019;-64
2022/08/01 01:14:44;;;;;;;;;;;;;;;;;;350054;28;975;-65
2022/08/01 01:15:04;;;;;;;;;;;;;;;;;;347120;28;1120;-65
2022/08/01 01:15:28;;;;;;;;;;;;;;;;;;347090;28;1032;-65
2022/08/01 01:15:39;;;;;;;;;;;;;;;;;;347169;28;977;-64
2022/08/01 01:15:55;;;;;;;;;;;;;;;;;;347114;28;972;-64
2022/08/01 01:16:08;;;;;;;;;;;;;;;;;;350094;28;899;-65
2022/08/01 01:16:19;;;;;;;;;;;;;;;;;;350097;28;932;-64
2022/08/01 01:16:30;;;;;;;;;;;;;;;;;;349979;28;991;-64
2022/08/01 01:16:42;;;;;;;;;;;;;;;;;;350061;28;995;-65
2022/08/01 01:16:53;;;;;;;;;;;;;;;;;;350099;28;976;-64
2022/08/01 01:17:04;;;;;;;;;;;;;;;;;;349962;28;1963;-64
2022/08/01 01:17:16;;;;;;;;;;;;;;;;;;350082;28;928;-65
2022/08/01 01:17:38;;;;;;;;;;;;;;;;;;350023;28;933;-65
2022/08/01 01:17:53;;;;;;;;;;;;;;;;;;350050;28;1000;-64
2022/08/01 01:18:06;;;;;;;;;;;;;;;;;;350085;28;999;-64
2022/08/01 01:18:20;;;;;;;;;;;;;;;;;;350050;28;917;-65
2022/08/01 01:18:32;;;;;;;;;;;;;;;;;;350035;28;948;-65
2022/08/01 01:18:56;;;;;;;;;;;;;;;;;;350095;28;971;-64
2022/08/01 01:19:10;;;;;;;;;;;;;;;;;;350051;28;865;-64
2022/08/01 01:19:23;;;;;;;;;;;;;;;;;;350100;28;976;-64
2022/08/01 01:19:35;;;;;;;;;;;;;;;;;;350097;28;961;-64
2022/08/01 01:19:47;;;;;;;;;;;;;;;;;;350014;28;976;-65
2022/08/01 01:19:59;;;;;;;;;;;;;;;;;;350092;28;991;-64
2022/08/01 01:20:11;;;;;;;;;;;;;;;;;;350105;28;841;-64
2022/08/01 01:20:27;;;;;;;;;;;;;;;;;;350129;28;991;-64
2022/08/01 01:20:38;;;;;;;;;;;;;;;;;;350093;28;909;-65
2022/08/01 01:20:57;;;;;;;;;;;;;;;;;;350138;28;817;-65